Time;durP1;ratioP1;P1;durP2;ratioP2;P2;SDS_P1;SDS_P2;PMS_P1;PMS_P2;Temp;Humidity;BMP_temperature;BMP_pressure;BME280_temperature;BME280_humidity;BME280_pressure;Samples;Min_cycle;Max_cycle;Signal;HPM_P1;HPM_P2
2022/04/16 00:00:09;;;;;;;0.17;0.17;;;;;;;;;;5006776;28;20681;-83
2022/04/16 00:02:37;;;;;;;0.17;0.17;;;;;;;;;;5006634;28;20622;-83
2022/04/16 00:05:07;;;;;;;0.10;0.10;;;;;;;;;;5009124;28;20650;-83
2022/04/16 00:07:35;;;;;;;0.10;0.10;;;;;;;;;;5025103;28;20634;-84
2022/04/16 00:10:03;;;;;;;0.10;0.10;;;;;;;;;;5027007;28;20626;-84
2022/04/16 00:12:30;;;;;;;0.20;0.20;;;5.60;99.90;;;;;;5025826;28;20685;-83
2022/04/16 00:14:59;;;;;;;0.10;0.10;;;5.50;99.90;;;;;;5024900;28;20669;-82
2022/04/16 00:17:28;;;;;;;0.17;0.17;;;5.40;99.90;;;;;;5025796;28;20623;-82
2022/04/16 00:19:56;;;;;;;0.10;0.10;;;;;;;;;;5003042;28;20638;-84
2022/04/16 00:22:23;;;;;;;0.10;0.10;;;5.30;99.90;;;;;;5011063;28;20653;-83
2022/04/16 00:24:50;;;;;;;0.10;0.10;;;5.20;99.90;;;;;;5010311;28;20659;-83
2022/04/16 00:27:20;;;;;;;0.10;0.10;;;5.20;99.90;;;;;;5008513;28;20630;-83
2022/04/16 00:29:47;;;;;;;0.10;0.10;;;5.20;99.90;;;;;;5020521;28;20638;-83
2022/04/16 00:32:19;;;;;;;0.10;0.10;;;5.20;99.90;;;;;;5011666;28;20688;-83
2022/04/16 00:34:46;;;;;;;0.10;0.10;;;5.20;99.90;;;;;;5030152;28;20642;-83
2022/04/16 00:37:13;;;;;;;0.10;0.10;;;5.20;99.90;;;;;;5028171;28;20617;-83
2022/04/16 00:39:41;;;;;;;0.10;0.10;;;;;;;;;;5014780;28;20642;-83
2022/04/16 00:42:11;;;;;;;0.10;0.10;;;;;;;;;;5010672;28;20618;-83
2022/04/16 00:44:39;;;;;;;0.10;0.10;;;5.00;99.90;;;;;;5014849;28;20697;-83
2022/04/16 00:47:06;;;;;;;0.20;0.20;;;5.00;99.90;;;;;;5013479;28;20680;-84
2022/04/16 00:49:34;;;;;;;0.13;0.13;;;4.90;99.90;;;;;;5014208;28;20645;-83
2022/04/16 00:52:04;;;;;;;0.10;0.10;;;4.80;99.90;;;;;;5013647;28;20658;-83
2022/04/16 00:54:32;;;;;;;0.10;0.10;;;;;;;;;;5012713;28;20619;-84
2022/04/16 00:56:59;;;;;;;0.10;0.10;;;;;;;;;;5016563;28;20627;-84
2022/04/16 00:59:26;;;;;;;0.20;0.20;;;4.60;99.90;;;;;;5032423;28;20618;-84
2022/04/16 01:01:54;;;;;;;0.13;0.13;;;;;;;;;;5014900;28;20622;-86
2022/04/16 01:04:21;;;;;;;0.20;0.20;;;;;;;;;;5016233;28;20634;-85
2022/04/16 01:06:49;;;;;;;0.10;0.10;;;;;;;;;;5015786;28;20642;-84
2022/04/16 01:09:17;;;;;;;0.20;0.20;;;;;;;;;;5033032;28;20626;-84
2022/04/16 01:11:45;;;;;;;0.10;0.10;;;;;;;;;;5017436;28;20662;-85
2022/04/16 01:14:17;;;;;;;0.10;0.10;;;;;;;;;;5016367;28;20630;-83
2022/04/16 01:16:45;;;;;;;0.20;0.20;;;;;;;;;;5007935;28;20662;-84
2022/04/16 01:19:12;;;;;;;0.20;0.20;;;;;;;;;;5032152;28;20630;-84
2022/04/16 01:21:40;;;;;;;0.20;0.20;;;;;;;;;;5016591;28;20649;-84
2022/04/16 01:24:12;;;;;;;0.20;0.20;;;;;;;;;;5013822;28;20650;-83
2022/04/16 01:26:39;;;;;;;0.20;0.20;;;;;;;;;;5008573;28;20670;-84
2022/04/16 01:29:06;;;;;;;0.10;0.10;;;;;;;;;;5013676;28;20717;-84
2022/04/16 01:31:34;;;;;;;0.10;0.10;;;;;;;;;;5013325;28;20646;-83
2022/04/16 01:34:02;;;;;;;0.20;0.20;;;;;;;;;;5015943;28;20630;-83
2022/04/16 01:36:31;;;;;;;0.20;0.20;;;3.70;99.90;;;;;;5012570;28;20662;-84
2022/04/16 01:38:58;;;;;;;0.20;0.20;;;4.30;99.90;;;;;;5014144;28;20657;-83
2022/04/16 01:41:28;;;;;;;0.20;0.20;;;3.30;99.90;;;;;;5014130;28;20670;-84
2022/04/16 01:43:56;;;;;;;0.20;0.20;;;3.60;99.90;;;;;;5010754;28;20623;-83
2022/04/16 01:46:23;;;;;;;0.10;0.10;;;3.60;99.90;;;;;;5011547;28;20646;-82
2022/04/16 01:48:54;;;;;;;0.20;0.20;;;3.60;99.90;;;;;;5011716;28;20632;-82
2022/04/16 01:51:21;;;;;;;0.10;0.10;;;3.60;99.90;;;;;;5011687;28;20654;-82
2022/04/16 01:53:48;;;;;;;0.10;0.10;;;3.60;99.90;;;;;;5009795;28;20622;-82
2022/04/16 01:56:15;;;;;;;0.10;0.10;;;3.60;99.90;;;;;;5028622;28;20677;-83
2022/04/16 01:58:44;;;;;;;0.10;0.10;;;3.60;99.90;;;;;;5028307;28;20654;-81
2022/04/16 02:01:11;;;;;;;0.13;0.13;;;3.60;99.90;;;;;;5032542;28;20626;-81
2022/04/16 02:03:38;;;;;;;0.20;0.20;;;3.60;99.90;;;;;;5030295;28;20637;-81
2022/04/16 02:06:06;;;;;;;0.20;0.20;;;3.60;99.90;;;;;;5027728;28;20654;-81
2022/04/16 02:08:33;;;;;;;0.20;0.20;;;3.70;99.90;;;;;;5009649;28;20642;-81
2022/04/16 02:11:00;;;;;;;0.20;0.20;;;3.70;99.90;;;;;;5015107;28;20631;-82
2022/04/16 02:13:27;;;;;;;0.20;0.20;;;3.70;99.90;;;;;;5013993;28;20651;-81
2022/04/16 02:15:59;;;;;;;0.10;0.10;;;3.70;99.90;;;;;;5013166;28;20662;-82
2022/04/16 02:18:27;;;;;;;0.20;0.20;;;3.70;99.90;;;;;;5011399;28;20681;-82
2022/04/16 02:20:54;;;;;;;0.20;0.20;;;3.70;99.90;;;;;;5012144;28;20658;-82
2022/04/16 02:23:21;;;;;;;0.20;0.20;;;3.60;99.90;;;;;;5012713;28;20627;-82
2022/04/16 02:25:49;;;;;;;0.10;0.10;;;3.50;99.90;;;;;;5013712;28;20700;-83
2022/04/16 02:28:16;;;;;;;0.10;0.10;;;3.50;99.90;;;;;;5011947;28;20626;-82
2022/04/16 02:30:44;;;;;;;0.17;0.17;;;3.50;99.90;;;;;;5030114;28;20611;-82
2022/04/16 02:33:12;;;;;;;0.23;0.23;;;3.40;99.90;;;;;;5010802;28;20655;-83
2022/04/16 02:35:40;;;;;;;0.20;0.20;;;3.40;99.90;;;;;;5028267;28;20750;-83
2022/04/16 02:38:07;;;;;;;0.20;0.20;;;3.30;99.90;;;;;;5012761;28;20639;-82
2022/04/16 02:40:34;;;;;;;0.20;0.20;;;3.30;99.90;;;;;;5010535;28;20623;-83
2022/04/16 02:43:01;;;;;;;0.20;0.20;;;3.20;99.90;;;;;;5029849;28;20669;-83
2022/04/16 02:48:14;;;;;;;0.20;0.20;;;;;;;;;;5011942;28;20684;-83
2022/04/16 02:50:41;;;;;;;0.10;0.10;;;3.00;99.90;;;;;;5012986;28;20696;-82
2022/04/16 02:53:08;;;;;;;0.13;0.13;;;3.00;99.90;;;;;;5010029;28;21301;-82
2022/04/16 02:55:35;;;;;;;0.20;0.20;;;3.00;99.90;;;;;;5009388;28;20666;-83
2022/04/16 02:58:03;;;;;;;0.10;0.10;;;3.00;99.90;;;;;;5013986;28;20635;-83
2022/04/16 03:00:30;;;;;;;0.10;0.10;;;3.00;99.90;;;;;;5016281;28;20717;-83
2022/04/16 03:02:58;;;;;;;0.10;0.10;;;;;;;;;;5031283;28;20718;-84
2022/04/16 03:05:26;;;;;;;0.17;0.17;;;;;;;;;;5027398;28;21305;-83
2022/04/16 03:07:53;;;;;;;0.10;0.10;;;3.00;99.90;;;;;;5007455;28;20629;-83
2022/04/16 03:10:20;;;;;;;0.20;0.20;;;;;;;;;;5012334;28;20642;-82
2022/04/16 03:12:49;;;;;;;0.20;0.20;;;2.80;99.90;;;;;;5009951;28;20728;-82
2022/04/16 03:18:02;;;;;;;0.20;0.20;;;2.60;99.90;;;;;;5010367;28;20607;-82
2022/04/16 03:20:31;;;;;;;0.20;0.20;;;2.50;99.90;;;;;;5008880;28;20734;-83
2022/04/16 03:22:59;;;;;;;0.20;0.20;;;2.50;99.90;;;;;;5010845;28;20622;-82
2022/04/16 03:25:27;;;;;;;0.20;0.20;;;2.40;99.90;;;;;;5010969;28;20654;-82
2022/04/16 03:27:54;;;;;;;0.20;0.20;;;;;;;;;;5009904;28;20625;-83
2022/04/16 03:30:23;;;;;;;0.20;0.20;;;2.40;99.90;;;;;;5026403;28;20623;-82
2022/04/16 03:32:51;;;;;;;0.20;0.20;;;2.40;99.90;;;;;;5010858;28;20662;-82
2022/04/16 03:35:19;;;;;;;0.20;0.20;;;2.50;99.90;;;;;;5009398;28;20652;-82
2022/04/16 03:37:48;;;;;;;0.20;0.20;;;2.40;99.90;;;;;;5026718;28;20642;-83
2022/04/16 03:40:15;;;;;;;0.20;0.20;;;2.20;99.90;;;;;;5010232;28;20631;-83
2022/04/16 03:42:46;;;;;;;0.20;0.20;;;2.30;99.90;;;;;;5008780;28;20714;-83
2022/04/16 03:45:18;;;;;;;0.20;0.20;;;2.30;99.90;;;;;;5026239;28;20668;-83
2022/04/16 03:47:46;;;;;;;0.20;0.20;;;2.40;99.90;;;;;;5009695;28;20614;-84
2022/04/16 03:50:13;;;;;;;0.20;0.20;;;2.20;99.90;;;;;;5009959;28;20641;-83
2022/04/16 03:52:41;;;;;;;0.20;0.20;;;2.30;99.90;;;;;;5011194;28;20650;-83
2022/04/16 04:00:44;;;;;;;0.20;0.20;;;;;;;;;;5005976;28;20777;-83
2022/04/16 04:03:11;;;;;;;0.20;0.20;;;2.00;99.90;;;;;;5025714;28;20611;-83
2022/04/16 04:05:38;;;;;;;0.17;0.17;;;;;;;;;;5005417;28;20720;-83
2022/04/16 04:08:06;;;;;;;0.20;0.20;;;;;;;;;;5007110;28;20634;-84
2022/04/16 04:10:35;;;;;;;0.10;0.10;;;;;;;;;;5010555;28;20639;-85
2022/04/16 04:13:03;;;;;;;0.20;0.20;;;;;;;;;;5012645;28;20658;-84
2022/04/16 04:15:30;;;;;;;0.20;0.20;;;;;;;;;;5013635;28;20662;-83
2022/04/16 04:17:59;;;;;;;0.20;0.20;;;;;;;;;;5011940;28;20626;-83
2022/04/16 04:20:26;;;;;;;0.20;0.20;;;;;;;;;;5030118;28;20630;-83
2022/04/16 04:22:54;;;;;;;0.20;0.20;;;;;;;;;;5031264;28;20705;-83
2022/04/16 04:25:21;;;;;;;0.20;0.20;;;;;;;;;;5013133;28;20693;-84
2022/04/16 04:27:50;;;;;;;0.20;0.20;;;;;;;;;;5012723;28;20635;-84
2022/04/16 04:30:18;;;;;;;0.13;0.13;;;;;;;;;;5013224;28;20710;-84
2022/04/16 04:32:45;;;;;;;0.20;0.20;;;;;;;;;;5014104;28;20750;-83
2022/04/16 04:35:13;;;;;;;0.20;0.20;;;;;;;;;;5012346;28;20658;-82
2022/04/16 04:37:40;;;;;;;0.20;0.20;;;;;;;;;;5012613;28;20630;-83
2022/04/16 04:40:08;;;;;;;0.20;0.20;;;;;;;;;;5014295;28;20627;-83
2022/04/16 04:42:36;;;;;;;0.20;0.20;;;;;;;;;;5015829;28;20650;-83
2022/04/16 04:45:09;;;;;;;0.20;0.20;;;;;;;;;;5011193;28;20760;-84
2022/04/16 04:47:36;;;;;;;0.20;0.20;;;;;;;;;;5013781;28;20626;-83
2022/04/16 04:50:04;;;;;;;0.20;0.20;;;;;;;;;;5011880;28;20637;-82
2022/04/16 04:52:31;;;;;;;0.10;0.10;;;;;;;;;;5012791;28;20647;-83
2022/04/16 04:54:59;;;;;;;0.20;0.20;;;;;;;;;;5031774;28;20649;-83
2022/04/16 04:57:27;;;;;;;0.20;0.20;;;;;;;;;;5031510;28;20614;-83
2022/04/16 04:59:54;;;;;;;0.20;0.20;;;;;;;;;;5031130;28;20614;-83
2022/04/16 05:02:23;;;;;;;0.20;0.20;;;;;;;;;;5032937;28;20618;-83
2022/04/16 05:04:50;;;;;;;0.20;0.20;;;;;;;;;;5013775;28;20646;-83
2022/04/16 05:07:18;;;;;;;0.20;0.20;;;;;;;;;;5011870;28;20626;-83
2022/04/16 05:09:45;;;;;;;0.20;0.20;;;;;;;;;;5012931;28;20630;-83
2022/04/16 05:12:12;;;;;;;0.20;0.20;;;;;;;;;;5014264;28;20626;-83
2022/04/16 05:14:39;;;;;;;0.20;0.20;;;;;;;;;;5032073;28;20654;-83
2022/04/16 05:17:07;;;;;;;0.10;0.10;;;;;;;;;;5031128;28;20630;-82
2022/04/16 05:19:36;;;;;;;0.20;0.20;;;;;;;;;;5013028;28;20623;-83
2022/04/16 05:22:03;;;;;;;0.13;0.13;;;;;;;;;;5015228;28;20737;-83
2022/04/16 05:24:30;;;;;;;0.20;0.20;;;;;;;;;;5014357;28;20633;-82
2022/04/16 05:26:58;;;;;;;0.17;0.17;;;;;;;;;;5012973;28;20638;-83
2022/04/16 05:29:25;;;;;;;0.20;0.20;;;;;;;;;;5012406;28;20632;-83
2022/04/16 05:31:52;;;;;;;0.20;0.20;;;;;;;;;;5029898;28;20648;-83
2022/04/16 05:34:20;;;;;;;0.10;0.10;;;;;;;;;;5012495;28;20658;-83
2022/04/16 05:36:49;;;;;;;0.10;0.10;;;;;;;;;;5011048;28;20629;-83
2022/04/16 05:39:16;;;;;;;0.10;0.10;;;;;;;;;;5028678;28;20688;-83
2022/04/16 05:41:44;;;;;;;0.13;0.13;;;;;;;;;;5021916;23;20707;-68
2022/04/16 05:44:11;;;;;;;0.20;0.20;;;;;;;;;;5001827;28;20596;-69
2022/04/16 05:46:38;;;;;;;0.20;0.20;;;;;;;;;;4996052;28;20614;-69
2022/04/16 05:49:05;;;;;;;0.20;0.20;;;;;;;;;;5004026;28;20662;-68
2022/04/16 05:51:32;;;;;;;0.20;0.20;;;;;;;;;;5005366;28;20624;-68
2022/04/16 05:54:02;;;;;;;0.20;0.20;;;;;;;;;;5003409;28;20696;-69
2022/04/16 05:56:30;;;;;;;0.20;0.20;;;;;;;;;;5002756;28;20618;-67
2022/04/16 05:58:57;;;;;;;0.20;0.20;;;;;;;;;;5002006;28;20658;-70
2022/04/16 06:01:24;;;;;;;0.20;0.20;;;;;;;;;;5006235;28;20643;-70
2022/04/16 06:03:52;;;;;;;0.20;0.20;;;;;;;;;;5009137;28;20611;-70
2022/04/16 06:06:19;;;;;;;0.20;0.20;;;;;;;;;;5002780;28;20969;-69
2022/04/16 06:08:46;;;;;;;0.10;0.10;;;;;;;;;;5000844;28;20656;-70
2022/04/16 06:11:17;;;;;;;0.17;0.17;;;;;;;;;;5005193;28;20616;-70
2022/04/16 06:13:44;;;;;;;0.10;0.10;;;;;;;;;;5001607;28;20658;-70
2022/04/16 06:16:12;;;;;;;0.10;0.10;;;;;;;;;;5003425;28;20620;-70
2022/04/16 06:18:39;;;;;;;0.10;0.10;;;;;;;;;;5012018;28;20636;-70
2022/04/16 06:21:07;;;;;;;0.20;0.20;;;;;;;;;;5004458;28;20615;-69
2022/04/16 06:23:34;;;;;;;0.20;0.20;;;;;;;;;;5005989;28;20596;-70
2022/04/16 06:26:01;;;;;;;0.13;0.13;;;;;;;;;;5004053;28;20627;-68
2022/04/16 06:28:30;;;;;;;0.10;0.10;;;;;;;;;;5002167;28;20638;-69
2022/04/16 06:30:57;;;;;;;0.10;0.10;;;;;;;;;;5006106;28;20734;-69
2022/04/16 06:33:24;;;;;;;0.10;0.10;;;;;;;;;;4997354;28;20679;-68
2022/04/16 06:35:52;;;;;;;0.13;0.13;;;;;;;;;;5001989;28;20616;-68
2022/04/16 06:38:19;;;;;;;0.10;0.10;;;;;;;;;;5001654;28;20625;-69
2022/04/16 06:40:46;;;;;;;0.20;0.20;;;;;;;;;;4999018;28;20628;-69
2022/04/16 06:43:13;;;;;;;0.20;0.20;;;;;;;;;;5001972;28;20631;-68
2022/04/16 06:45:42;;;;;;;0.20;0.20;;;;;;;;;;5001123;28;21169;-68
2022/04/16 06:48:09;;;;;;;0.10;0.10;;;;;;;;;;5014419;28;20677;-69
2022/04/16 06:50:37;;;;;;;0.20;0.20;;;;;;;;;;5017050;28;20648;-68
2022/04/16 06:53:04;;;;;;;0.20;0.20;;;;;;;;;;5003132;28;20647;-68
2022/04/16 06:55:31;;;;;;;0.10;0.10;;;;;;;;;;5002491;28;20707;-67
2022/04/16 06:57:58;;;;;;;0.20;0.20;;;;;;;;;;4997167;28;20636;-69
2022/04/16 07:00:25;;;;;;;0.20;0.20;;;;;;;;;;5001801;28;20671;-68
2022/04/16 07:02:54;;;;;;;0.10;0.10;;;;;;;;;;5003929;28;20655;-69
2022/04/16 07:05:21;;;;;;;0.10;0.10;;;;;;;;;;5005083;28;20615;-68
2022/04/16 07:07:48;;;;;;;0.10;0.10;;;;;;;;;;4995398;28;20623;-68
2022/04/16 07:10:16;;;;;;;0.10;0.10;;;;;;;;;;5004757;28;20663;-68
2022/04/16 07:12:43;;;;;;;0.20;0.20;;;;;;;;;;4998868;28;20659;-69
2022/04/16 07:15:11;;;;;;;0.20;0.20;;;;;;;;;;5001862;28;20596;-70
2022/04/16 07:17:38;;;;;;;0.20;0.20;;;;;;;;;;4998729;28;20652;-69
2022/04/16 07:20:08;;;;;;;0.10;0.10;;;;;;;;;;5006329;28;20651;-69
2022/04/16 07:22:37;;;;;;;0.10;0.10;;;;;;;;;;5004732;28;20627;-69
2022/04/16 07:25:04;;;;;;;0.10;0.10;;;;;;;;;;5001023;28;20640;-69
2022/04/16 07:27:32;;;;;;;0.10;0.10;;;;;;;;;;5002492;28;20630;-69
2022/04/16 07:30:00;;;;;;;0.10;0.10;;;;;;;;;;5003547;28;20720;-69
2022/04/16 07:32:28;;;;;;;0.10;0.10;;;;;;;;;;5000089;28;20627;-69
2022/04/16 07:34:55;;;;;;;0.20;0.20;;;;;;;;;;4996668;28;20652;-69
2022/04/16 07:37:24;;;;;;;0.10;0.10;;;;;;;;;;4999276;28;20630;-69
2022/04/16 07:39:51;;;;;;;0.20;0.20;;;;;;;;;;5005112;28;20762;-70
2022/04/16 07:42:18;;;;;;;0.13;0.13;;;;;;;;;;4995551;28;20677;-72
2022/04/16 07:44:46;;;;;;;0.17;0.17;;;;;;;;;;5006484;28;20615;-69
2022/04/16 07:47:13;;;;;;;0.20;0.20;;;;;;;;;;5002376;28;20625;-71
2022/04/16 07:49:41;;;;;;;0.20;0.20;;;;;;;;;;4992125;28;20648;-69
2022/04/16 07:52:08;;;;;;;0.20;0.20;;;;;;;;;;4996777;28;20697;-69
2022/04/16 07:54:37;;;;;;;0.17;0.17;;;;;;;;;;5001885;28;20669;-69
2022/04/16 07:57:05;;;;;;;0.10;0.10;;;;;;;;;;5004708;28;20627;-70
2022/04/16 07:59:32;;;;;;;0.10;0.10;;;;;;;;;;5000385;28;20640;-69
2022/04/16 08:01:59;;;;;;;0.10;0.10;;;;;;;;;;4992575;28;20628;-70
2022/04/16 08:04:27;;;;;;;0.10;0.10;;;;;;;;;;4995907;28;20707;-69
2022/04/16 08:06:54;;;;;;;0.10;0.10;;;;;;;;;;4990003;28;20708;-68
2022/04/16 08:09:22;;;;;;;0.10;0.10;;;;;;;;;;5009373;28;20771;-68
2022/04/16 08:11:50;;;;;;;0.10;0.10;;;;;;;;;;5005071;28;20611;-68
2022/04/16 08:14:18;;;;;;;0.10;0.10;;;;;;;;;;5001623;28;20671;-70
2022/04/16 08:16:45;;;;;;;0.10;0.10;;;;;;;;;;5000741;28;20627;-71
2022/04/16 08:19:13;;;;;;;0.10;0.10;;;;;;;;;;5000063;28;20655;-70
2022/04/16 08:21:40;;;;;;;0.10;0.10;;;;;;;;;;5001947;28;20803;-70
2022/04/16 08:24:22;;;;;;;0.10;0.10;;;;;;;;;;5001980;28;21024;-69
2022/04/16 08:26:51;;;;;;;0.10;0.10;;;;;;;;;;4994591;28;20621;-69
2022/04/16 08:29:19;;;;;;;0.10;0.10;;;;;;;;;;4991679;28;20651;-69
2022/04/16 08:31:46;;;;;;;0.10;0.10;;;;;;;;;;5001486;28;20705;-69
2022/04/16 08:34:14;;;;;;;0.10;0.10;;;;;;;;;;5017130;28;20670;-69
2022/04/16 08:36:41;;;;;;;0.10;0.10;;;;;;;;;;5009296;28;20639;-69
2022/04/16 08:39:08;;;;;;;0.10;0.10;;;;;;;;;;4997670;28;20701;-68
2022/04/16 08:41:36;;;;;;;0.10;0.10;;;;;;;;;;4995372;28;21289;-69
2022/04/16 08:44:04;;;;;;;0.10;0.10;;;;;;;;;;5003097;28;20614;-69
2022/04/16 08:46:33;;;;;;;0.10;0.10;;;;;;;;;;5000688;28;20687;-69
2022/04/16 08:49:00;;;;;;;0.10;0.10;;;;;;;;;;4997650;28;20656;-69
2022/04/16 08:51:28;;;;;;;0.10;0.10;;;;;;;;;;4995173;28;20616;-69
2022/04/16 08:53:55;;;;;;;0.10;0.10;;;;;;;;;;5000642;28;20651;-68
2022/04/16 08:56:23;;;;;;;0.10;0.10;;;;;;;;;;5006477;28;20661;-69
2022/04/16 08:58:50;;;;;;;0.10;0.10;;;;;;;;;;5006038;28;20668;-69
2022/04/16 09:01:18;;;;;;;0.10;0.10;;;;;;;;;;5005573;28;20654;-70
2022/04/16 09:03:49;;;;;;;0.10;0.10;;;;;;;;;;5003789;28;20635;-69
2022/04/16 09:06:22;;;;;;;0.10;0.10;;;;;;;;;;5003016;28;20612;-69
2022/04/16 09:08:50;;;;;;;0.10;0.10;;;;;;;;;;4995812;28;20656;-69
2022/04/16 09:11:21;;;;;;;0.10;0.10;;;;;;;;;;4999070;28;20625;-68
2022/04/16 09:13:53;;;;;;;0.10;0.10;;;;;;;;;;5007555;28;20239;-69
2022/04/16 09:16:22;;;;;;;0.10;0.10;;;;;;;;;;4998737;28;20200;-69
2022/04/16 09:18:50;;;;;;;0.10;0.10;;;;;;;;;;5009158;28;20758;-68
2022/04/16 09:21:18;;;;;;;0.10;0.10;;;;;;;;;;5004937;28;20208;-70
2022/04/16 09:23:47;;;;;;;0.10;0.10;;;;;;;;;;5005440;28;20200;-68
2022/04/16 09:26:25;;;;;;;0.10;0.10;;;;;;;;;;5003261;28;20208;-68
2022/04/16 09:28:53;;;;;;;0.10;0.10;;;;;;;;;;5009229;28;20217;-69
2022/04/16 09:31:27;;;;;;;0.10;0.10;;;;;;;;;;5011033;28;20296;-69
2022/04/16 09:33:54;;;;;;;0.10;0.10;;;;;;;;;;5018286;28;20220;-69
2022/04/16 09:36:24;;;;;;;0.10;0.10;;;;;;;;;;5001932;28;20250;-69
2022/04/16 09:38:52;;;;;;;0.10;0.10;;;;;;;;;;5008340;28;20224;-69
2022/04/16 09:41:19;;;;;;;0.10;0.10;;;;;;;;;;4996150;28;20208;-70
2022/04/16 09:43:46;;;;;;;0.10;0.10;;;;;;;;;;4999941;28;20215;-67
2022/04/16 09:46:14;;;;;;;0.10;0.10;;;;;;;;;;5005447;28;20284;-70
2022/04/16 09:48:43;;;;;;;0.10;0.10;;;;;;;;;;5004736;28;20236;-69
2022/04/16 09:51:11;;;;;;;0.10;0.10;;;;;;;;;;5007980;28;20193;-69
2022/04/16 09:53:39;;;;;;;0.10;0.10;;;;;;;;;;5007695;28;20212;-69
2022/04/16 09:56:08;;;;;;;0.10;0.10;;;;;;;;;;5005710;28;20207;-69
2022/04/16 09:58:36;;;;;;;0.10;0.10;;;;;;;;;;4997855;28;20205;-70
2022/04/16 10:01:04;;;;;;;0.10;0.10;;;;;;;;;;5003245;28;20204;-69
2022/04/16 10:03:32;;;;;;;0.10;0.10;;;;;;;;;;5004391;28;20267;-69
2022/04/16 10:06:01;;;;;;;0.10;0.10;;;;;;;;;;5002311;28;20192;-68
2022/04/16 10:08:28;;;;;;;0.10;0.10;;;;;;;;;;4996242;28;20240;-69
2022/04/16 10:10:57;;;;;;;0.10;0.10;;;;;;;;;;5006163;28;20649;-69
2022/04/16 10:13:25;;;;;;;0.10;0.10;;;;;;;;;;4998356;28;20203;-69
2022/04/16 10:16:00;;;;;;;0.00;0.00;;;;;;;;;;5006075;28;20231;-69
2022/04/16 10:18:28;;;;;;;0.10;0.10;;;;;;;;;;4997483;28;20200;-69
2022/04/16 10:20:55;;;;;;;0.10;0.10;;;;;;;;;;5005393;28;20672;-68
2022/04/16 10:23:28;;;;;;;0.10;0.10;;;;;;;;;;5003078;28;20204;-69
2022/04/16 10:26:02;;;;;;;0.00;0.00;;;;;;;;;;5000121;28;20204;-68
2022/04/16 10:28:34;;;;;;;0.10;0.10;;;;;;;;;;5007323;28;20639;-68
2022/04/16 10:31:02;;;;;;;0.10;0.10;;;;;;;;;;5008909;28;20201;-68
2022/04/16 10:33:31;;;;;;;0.10;0.10;;;;;;;;;;5004462;28;20228;-69
2022/04/16 10:35:59;;;;;;;0.10;0.10;;;;;;;;;;4996437;28;20252;-69
2022/04/16 10:38:32;;;;;;;0.10;0.10;;;;;;;;;;5002311;28;20211;-69
2022/04/16 10:41:00;;;;;;;0.10;0.10;;;;;;;;;;5003031;28;20244;-69
2022/04/16 10:43:28;;;;;;;0.10;0.10;;;;;;;;;;4995642;28;20224;-69
2022/04/16 10:46:02;;;;;;;0.10;0.10;;;;;;;;;;4995934;28;20194;-69
2022/04/16 10:48:30;;;;;;;0.10;0.10;;;;;;;;;;5001426;28;20211;-69
2022/04/16 10:50:58;;;;;;;0.10;0.10;;;;;;;;;;5006066;28;20247;-69
2022/04/16 10:53:32;;;;;;;0.10;0.10;;;;;;;;;;4998468;28;20296;-70
2022/04/16 10:56:07;;;;;;;0.10;0.10;;;;;;;;;;5003088;28;20235;-69
2022/04/16 10:58:36;;;;;;;0.07;0.07;;;;;;;;;;4999841;28;20201;-69
2022/04/16 11:01:07;;;;;;;0.10;0.10;;;;;;;;;;5006859;28;20197;-69
2022/04/16 11:03:34;;;;;;;0.00;0.00;;;;;;;;;;5003787;28;20296;-69
2022/04/16 11:06:02;;;;;;;0.10;0.10;;;;;;;;;;5005367;28;20193;-69
2022/04/16 11:08:34;;;;;;;0.00;0.00;;;;;;;;;;4997395;28;20197;-68
2022/04/16 11:11:02;;;;;;;0.10;0.10;;;;;;;;;;5002462;28;20204;-69
2022/04/16 11:13:30;;;;;;;0.10;0.10;;;;;;;;;;5003671;28;20197;-68
2022/04/16 11:15:58;;;;;;;0.10;0.10;;;;;;;;;;5003088;28;20299;-69
2022/04/16 11:18:25;;;;;;;0.10;0.10;;;;;;;;;;5004984;28;20204;-69
2022/04/16 11:20:56;;;;;;;0.00;0.00;;;;;;;;;;4995880;28;20204;-68
2022/04/16 11:23:27;;;;;;;0.10;0.10;;;;;;;;;;5002157;28;20276;-69
2022/04/16 11:34:18;;;;;;;0.00;0.00;;;;;;;;;;4997555;28;20199;-69
2022/04/16 11:36:49;;;;;;;0.10;0.10;;;;;;;;;;5000130;28;20240;-69
2022/04/16 11:39:20;;;;;;;0.10;0.10;;;13.30;99.90;;;;;;4998511;28;20315;-69
2022/04/16 11:41:50;;;;;;;0.00;0.00;;;13.30;99.90;;;;;;4991374;28;20209;-70
2022/04/16 11:44:17;;;;;;;0.10;0.10;;;13.40;99.90;;;;;;5005722;28;20193;-69
2022/04/16 11:46:44;;;;;;;0.10;0.10;;;13.50;99.90;;;;;;4999287;28;20268;-69
2022/04/16 11:49:12;;;;;;;0.10;0.10;;;13.50;99.90;;;;;;5014418;28;20591;-70
2022/04/16 11:51:39;;;;;;;0.10;0.10;;;13.50;99.90;;;;;;4997862;28;20209;-69
2022/04/16 11:54:06;;;;;;;0.00;0.00;;;13.50;99.90;;;;;;5003925;28;20196;-70
2022/04/16 11:56:33;;;;;;;0.07;0.07;;;13.50;99.90;;;;;;5003641;28;20256;-69
2022/04/16 11:59:02;;;;;;;0.10;0.10;;;13.20;99.90;;;;;;4996632;28;20228;-69
2022/04/16 12:01:29;;;;;;;0.00;0.00;;;13.20;99.90;;;;;;5020643;28;20201;-69
2022/04/16 12:03:57;;;;;;;0.10;0.10;;;13.00;99.90;;;;;;5009459;28;20219;-69
2022/04/16 12:06:24;;;;;;;0.10;0.10;;;12.80;99.90;;;;;;5002754;28;20283;-68
2022/04/16 12:08:53;;;;;;;0.00;0.00;;;12.80;99.90;;;;;;5004947;28;20224;-69
2022/04/16 12:11:20;;;;;;;0.00;0.00;;;12.80;99.90;;;;;;5005359;28;20256;-67
2022/04/16 12:13:51;;;;;;;0.00;0.00;;;12.70;99.90;;;;;;5004724;28;20201;-70
2022/04/16 12:16:19;;;;;;;0.10;0.10;;;12.70;99.90;;;;;;5004909;28;20221;-70
2022/04/16 12:18:47;;;;;;;0.10;0.10;;;12.60;99.90;;;;;;5017711;28;20596;-69
2022/04/16 12:21:15;;;;;;;0.00;0.00;;;12.70;99.90;;;;;;4994131;28;20200;-69
2022/04/16 12:23:44;;;;;;;0.10;0.10;;;12.90;99.90;;;;;;4986759;28;20201;-70
2022/04/16 12:26:12;;;;;;;0.10;0.10;;;12.80;99.90;;;;;;5004368;28;20212;-69
2022/04/16 12:28:41;;;;;;;0.10;0.10;;;12.90;99.90;;;;;;4998842;28;20288;-69
2022/04/16 12:31:08;;;;;;;0.10;0.10;;;12.80;99.90;;;;;;5012852;28;20205;-69
2022/04/16 12:33:37;;;;;;;0.00;0.00;;;12.70;99.90;;;;;;5022701;28;20201;-70
2022/04/16 12:36:06;;;;;;;0.10;0.10;;;12.80;99.90;;;;;;5000841;28;20256;-69
2022/04/16 12:38:33;;;;;;;0.10;0.10;;;12.90;99.90;;;;;;5019987;28;20631;-69
2022/04/16 12:41:08;;;;;;;0.00;0.00;;;12.90;99.90;;;;;;5003108;28;20611;-70
2022/04/16 12:43:35;;;;;;;0.10;0.10;;;13.00;99.90;;;;;;5007509;28;20665;-69
2022/04/16 12:46:02;;;;;;;0.10;0.10;;;13.10;99.90;;;;;;5019537;28;20199;-70
2022/04/16 12:48:29;;;;;;;0.10;0.10;;;13.10;99.90;;;;;;5000155;28;20292;-71
2022/04/16 12:50:57;;;;;;;0.07;0.07;;;13.10;99.90;;;;;;5004288;28;20201;-69
2022/04/16 12:53:25;;;;;;;0.00;0.00;;;13.20;99.90;;;;;;5006937;28;20197;-70
2022/04/16 12:55:52;;;;;;;0.10;0.10;;;13.30;99.90;;;;;;5007240;28;20212;-69
2022/04/16 12:58:19;;;;;;;0.10;0.10;;;13.30;99.90;;;;;;4999976;28;20197;-70
2022/04/16 13:00:46;;;;;;;0.10;0.10;;;13.40;99.90;;;;;;5004767;28;20627;-69
2022/04/16 13:03:14;;;;;;;0.10;0.10;;;13.30;99.90;;;;;;5005852;28;20201;-69
2022/04/16 13:05:41;;;;;;;0.00;0.00;;;13.40;99.90;;;;;;5004766;28;20204;-69
2022/04/16 13:08:11;;;;;;;0.10;0.10;;;13.40;99.90;;;;;;4998285;28;20200;-69
2022/04/16 13:10:38;;;;;;;0.10;0.10;;;13.40;99.90;;;;;;5016982;28;20303;-69
2022/04/16 13:13:06;;;;;;;0.10;0.10;;;13.40;99.90;;;;;;5006761;28;20220;-70
2022/04/16 13:15:32;;;;;;;0.00;0.00;;;13.20;99.90;;;;;;4997977;28;20225;-69
2022/04/16 13:17:59;;;;;;;0.10;0.10;;;13.20;99.90;;;;;;5007533;28;20235;-69
2022/04/16 13:20:27;;;;;;;0.10;0.10;;;12.90;99.90;;;;;;5005704;28;20228;-70
2022/04/16 13:22:54;;;;;;;0.10;0.10;;;12.80;99.90;;;;;;5022019;28;20258;-69
2022/04/16 13:25:23;;;;;;;0.10;0.10;;;12.70;99.90;;;;;;4997856;28;20197;-69
2022/04/16 13:27:50;;;;;;;0.10;0.10;;;12.60;99.90;;;;;;5001068;28;20201;-69
2022/04/16 13:30:17;;;;;;;0.00;0.00;;;12.50;99.90;;;;;;5010958;28;20226;-70
2022/04/16 13:32:44;;;;;;;0.10;0.10;;;12.40;99.90;;;;;;5002408;28;20284;-70
2022/04/16 13:35:11;;;;;;;0.10;0.10;;;12.40;99.90;;;;;;5005808;28;20322;-70
2022/04/16 13:37:38;;;;;;;0.10;0.10;;;12.30;99.90;;;;;;5024038;28;20239;-70
2022/04/16 13:42:52;;;;;;;0.10;0.10;;;12.30;99.90;;;;;;5003659;28;20338;-70
2022/04/16 13:45:19;;;;;;;0.10;0.10;;;12.30;99.90;;;;;;5000308;28;20320;-69
2022/04/16 13:47:46;;;;;;;0.10;0.10;;;12.30;99.90;;;;;;5001538;28;20200;-70
2022/04/16 13:50:13;;;;;;;0.10;0.10;;;12.30;99.90;;;;;;5008513;28;20307;-70
2022/04/16 13:52:40;;;;;;;0.10;0.10;;;12.30;99.90;;;;;;4996899;28;20241;-68
2022/04/16 13:55:08;;;;;;;0.00;0.00;;;12.30;99.90;;;;;;5016252;28;20324;-70
2022/04/16 13:57:35;;;;;;;0.10;0.10;;;12.40;99.90;;;;;;5003214;28;20279;-70
2022/04/16 14:00:04;;;;;;;0.10;0.10;;;12.40;99.90;;;;;;5005102;28;20225;-69
2022/04/16 14:02:38;;;;;;;0.10;0.10;;;12.30;99.90;;;;;;5006785;28;20232;-69
2022/04/16 14:07:50;;;;;;;0.10;0.10;;;12.40;99.90;;;;;;5018894;28;20205;-69
2022/04/16 14:10:17;;;;;;;0.10;0.10;;;12.40;99.90;;;;;;5003156;28;20732;-69
2022/04/16 14:12:45;;;;;;;0.10;0.10;;;12.40;99.90;;;;;;5021245;28;20312;-69
2022/04/16 14:15:13;;;;;;;0.00;0.00;;;12.40;99.90;;;;;;5001165;28;20200;-70
2022/04/16 14:17:40;;;;;;;0.10;0.10;;;12.50;99.90;;;;;;4998114;28;20196;-69
2022/04/16 14:20:09;;;;;;;0.10;0.10;;;12.40;99.90;;;;;;4994294;28;20221;-69
2022/04/16 14:22:36;;;;;;;0.10;0.10;;;12.40;99.90;;;;;;5005250;28;20204;-69
2022/04/16 14:25:03;;;;;;;0.00;0.00;;;12.40;99.90;;;;;;5021962;28;20208;-70